Etusivu
METAR-TAF:

METAR-TAF

Lentoasemat :

Kingston, Jamaika

Leveyspiiri: 17-56N, Pituuspiiri: 076-47W, korkeus merenpinnasta: 3 m

Tämänhetkinen sää

Tämä raportti tehtiin 42 minuuttia sitten, kello 10.00 UTC
Tuuli 8 kn pohjoisesta
Lämpötila 26°C
Kosteus 79%
Ilmanpaine 1014 hPa
Näkyvyys 10 km tai enemmän
Muutamia pilviä 2200 ft:n korkeudessa

METAR: MKJP 071000Z 01008KT 9999 FEW022 26/22 Q1014

Aika: 05:42 (10:42 UTC)

Sääennuste

Tämä raportti tehtiin 5 tuntia ja 27 minuuttia sitten, kello 05.15 UTC
Ennuste voimassa 07. päivästä klo 06 UTC - 08. päivään klo 06 UTC
Tuuli 5 kn pohjoisesta
Näkyvyys 10 km tai enemmän
Muutamia pilviä 2200 ft:n korkeudessa
Tulossa
07. päivästä klo 14 UTC - 07. päivään klo 16 UTC
Tuuli 15 kn etelästä/kaakosta
Tulossa
08. päivästä klo 01 UTC - 08. päivään klo 03 UTC
Tuuli 5 kn pohjoisesta

TAF: MKJP 070515Z 0706/0806 35005KT 9999 FEW022 BECMG 0714/0716 16015KT BECMG 0801/0803 35005KT

Säähavainnot ja -ennusteet yli 4000 lentoasemalta (METAR- ja TAF-raportit).

Käytössä olevat sääasemat on merkitty karttaan keltaisilla ja punaisilla pisteillä.

Aseta hiiri pisteen päälle nähdäksesi sääaseman nimen.

Klikkaa sitten nähdäksesi säähavainnot ja -ennusteet.

Kartan vaihtaminen: klikkaa mustalla rastilla varustettuja vihreitä pisteitä, niin voit zoomata sisään; viivalla varustettua vihreää pistettä, niin voit zoomata ulos tai vihreitä nuolia, niin pääset viereisille kartoille.


METAR-TAF: